Terminal Aerodrome Forecast
Issued by NWS Charleston, SC

Home | Current Version | Previous Version | Text Only | Print | Product List | Glossary On
Versions: 1 2 3 4 5 6 7 8 9 10 11 12 13 14 15 16 17 18 19 20 21 22
000
FTUS42 KCHS 310531
TAFCHS
TAF
KCHS 310531Z 3106/0106 12007KT P6SM VCSH SCT010 BKN070
     FM310700 13009KT P6SM SCT008 SCT012 BKN025
      TEMPO 3109/3113 5SM SHRA SCT006 BKN020
     FM311500 16009KT P6SM SCT020 BKN040
     FM010000 20005KT P6SM SCT015=

USA.gov is the U.S. government's official web portal to all federal, state and local government web resources and services.